createdAt,value
2019-03-10T00:01:44.541Z,3.97
2019-03-10T00:04:14.776Z,2.63
2019-03-10T00:06:45.112Z,3.20
2019-03-10T00:09:15.270Z,3.60
2019-03-10T00:11:45.537Z,3.53
2019-03-10T00:14:15.927Z,3.20
2019-03-10T00:16:46.135Z,4.00
2019-03-10T00:19:16.304Z,3.50
2019-03-10T00:21:46.541Z,3.57
2019-03-10T00:24:17.826Z,3.47
2019-03-10T00:26:48.104Z,3.53
2019-03-10T00:29:18.325Z,3.80
2019-03-10T00:31:48.507Z,3.03
2019-03-10T00:34:18.668Z,3.00
2019-03-10T00:36:49.113Z,3.67
2019-03-10T00:39:45.992Z,3.13
2019-03-10T00:43:12.106Z,2.70
2019-03-10T00:46:46.653Z,3.37
2019-03-10T00:50:09.717Z,3.20
2019-03-10T00:52:43.644Z,4.57
2019-03-10T00:55:13.893Z,3.17
2019-03-10T00:57:44.061Z,3.73
2019-03-10T01:00:17.551Z,3.67
2019-03-10T01:02:47.774Z,4.07
2019-03-10T01:05:19.390Z,5.17
2019-03-10T01:07:49.866Z,3.60
2019-03-10T01:10:20.124Z,3.10
2019-03-10T01:12:50.174Z,2.63
2019-03-10T01:15:20.374Z,3.70
2019-03-10T01:17:52.040Z,2.90
2019-03-10T01:20:22.175Z,3.13
2019-03-10T01:22:52.342Z,3.63
2019-03-10T01:25:23.526Z,3.80
2019-03-10T01:27:53.659Z,3.03
2019-03-10T01:30:24.078Z,3.80
2019-03-10T01:33:50.122Z,3.47
2019-03-10T01:36:18.307Z,4.13
2019-03-10T01:38:48.630Z,8.27
2019-03-10T01:41:18.898Z,8.87
2019-03-10T01:43:49.140Z,9.70
2019-03-10T01:46:19.277Z,8.97
2019-03-10T01:48:49.502Z,6.70
2019-03-10T01:51:19.822Z,4.50
2019-03-10T01:53:50.065Z,4.33
2019-03-10T01:56:20.165Z,4.67
2019-03-10T01:58:50.404Z,4.70
2019-03-10T02:01:20.622Z,3.90
2019-03-10T02:03:50.887Z,4.87
2019-03-10T02:06:21.151Z,4.00
2019-03-10T02:08:51.429Z,5.00
2019-03-10T02:11:21.710Z,3.97
2019-03-10T02:13:51.952Z,4.37
2019-03-10T02:16:22.193Z,4.20
2019-03-10T02:18:52.418Z,4.60
2019-03-10T02:21:22.622Z,4.20
2019-03-10T02:23:52.815Z,4.33
2019-03-10T02:26:23.835Z,3.90
2019-03-10T02:28:54.181Z,4.70
2019-03-10T02:31:24.306Z,4.73
2019-03-10T02:33:54.388Z,4.50
2019-03-10T02:36:24.567Z,4.93
2019-03-10T02:38:54.882Z,3.57
2019-03-10T02:41:25.067Z,4.30
2019-03-10T02:43:55.371Z,3.77
2019-03-10T02:46:25.574Z,4.87
2019-03-10T02:48:55.897Z,4.87
2019-03-10T02:51:26.176Z,4.80
2019-03-10T02:53:56.382Z,5.07
2019-03-10T02:56:26.544Z,4.07
2019-03-10T02:58:56.837Z,5.37
2019-03-10T03:01:27.065Z,7.03
2019-03-10T03:03:57.320Z,3.90
2019-03-10T03:06:27.704Z,3.80
2019-03-10T03:08:57.921Z,3.40
2019-03-10T03:11:28.133Z,3.43
2019-03-10T03:13:58.516Z,3.23
2019-03-10T03:16:28.853Z,4.57
2019-03-10T03:18:59.010Z,3.80
2019-03-10T03:21:42.362Z,4.80
2019-03-10T03:24:01.140Z,5.40
2019-03-10T03:26:31.317Z,4.50
2019-03-10T03:29:02.593Z,4.43
2019-03-10T03:31:32.823Z,4.63
2019-03-10T03:34:03.207Z,5.27
2019-03-10T03:36:38.239Z,5.40
2019-03-10T03:39:37.377Z,5.53
2019-03-10T03:42:07.708Z,7.50
2019-03-10T03:44:37.987Z,7.53
2019-03-10T03:47:08.202Z,7.97
2019-03-10T03:49:38.538Z,7.33
2019-03-10T03:52:08.794Z,7.30
2019-03-10T03:54:38.959Z,6.27
2019-03-10T03:57:09.254Z,7.17
2019-03-10T03:59:39.339Z,7.57
2019-03-10T04:02:37.589Z,8.73
2019-03-10T04:05:08.500Z,8.20
2019-03-10T04:07:38.796Z,5.80
2019-03-10T04:10:09.436Z,6.37
2019-03-10T04:12:39.597Z,7.27
2019-03-10T04:15:09.928Z,6.53
2019-03-10T04:17:40.135Z,6.33
2019-03-10T04:20:11.449Z,6.50
2019-03-10T04:22:41.800Z,7.30
2019-03-10T04:25:12.142Z,6.93
2019-03-10T04:27:42.932Z,7.70
2019-03-10T04:30:14.732Z,8.40
2019-03-10T04:32:44.999Z,9.37
2019-03-10T04:35:15.203Z,6.50
2019-03-10T04:37:45.434Z,7.03
2019-03-10T04:40:15.719Z,7.60
2019-03-10T04:42:45.919Z,8.10
2019-03-10T04:45:16.090Z,8.20
2019-03-10T04:47:46.370Z,8.13
2019-03-10T04:50:16.627Z,8.13
2019-03-10T04:52:46.825Z,7.50
2019-03-10T04:55:23.379Z,8.60
2019-03-10T04:58:02.322Z,8.97
2019-03-10T05:00:33.607Z,7.17
2019-03-10T05:03:03.878Z,7.17
2019-03-10T05:05:34.035Z,7.90
2019-03-10T05:08:04.330Z,7.03
2019-03-10T05:10:34.587Z,7.50
2019-03-10T05:13:04.877Z,6.80
2019-03-10T05:15:35.022Z,7.60
2019-03-10T05:18:05.247Z,7.67
2019-03-10T05:20:35.425Z,7.43
2019-03-10T05:23:33.725Z,8.83
2019-03-10T05:26:04.053Z,7.70
2019-03-10T05:28:35.001Z,6.80
2019-03-10T05:31:06.326Z,9.97
2019-03-10T05:33:36.574Z,7.70
2019-03-10T05:36:06.751Z,8.70
2019-03-10T05:38:36.989Z,6.37
2019-03-10T05:41:07.265Z,10.20
2019-03-10T05:43:37.534Z,13.57
2019-03-10T05:46:07.798Z,9.43
2019-03-10T05:48:38.020Z,10.40
2019-03-10T05:51:08.333Z,11.87
2019-03-10T05:53:38.664Z,9.43
2019-03-10T05:56:08.849Z,7.27
2019-03-10T05:58:39.094Z,9.77
2019-03-10T06:01:09.494Z,8.10
2019-03-10T06:03:39.693Z,7.50
2019-03-10T06:06:09.877Z,8.13
2019-03-10T06:08:40.160Z,7.57
2019-03-10T06:11:10.321Z,7.47
2019-03-10T06:13:40.493Z,7.07
2019-03-10T06:16:10.756Z,8.57
2019-03-10T06:18:40.864Z,8.70
2019-03-10T06:21:11.160Z,9.10
2019-03-10T06:23:41.425Z,8.43
2019-03-10T06:26:11.649Z,10.00
2019-03-10T06:28:41.860Z,10.53
2019-03-10T06:31:12.145Z,9.80
2019-03-10T06:33:43.159Z,9.57
2019-03-10T06:36:13.407Z,9.47
2019-03-10T06:38:43.561Z,8.90
2019-03-10T06:41:13.798Z,10.40
2019-03-10T06:43:44.003Z,11.20
2019-03-10T06:46:14.827Z,8.17
2019-03-10T06:48:45.117Z,7.77
2019-03-10T06:51:15.236Z,7.63
2019-03-10T06:53:47.248Z,10.07
2019-03-10T06:56:17.898Z,9.47
2019-03-10T06:58:48.110Z,9.83
2019-03-10T07:01:18.384Z,9.57
2019-03-10T07:03:48.772Z,10.13
2019-03-10T07:06:19.032Z,11.10
2019-03-10T07:08:49.338Z,11.93
2019-03-10T07:11:19.577Z,11.97
2019-03-10T07:13:49.793Z,12.10
2019-03-10T07:16:20.018Z,11.67
2019-03-10T07:18:50.462Z,10.90
2019-03-10T07:21:20.974Z,9.73
2019-03-10T07:23:51.121Z,8.77
2019-03-10T07:26:21.344Z,8.50
2019-03-10T07:29:10.375Z,9.00
2019-03-10T07:32:12.853Z,7.63
2019-03-10T07:35:02.426Z,7.50
2019-03-10T07:38:03.982Z,8.27
2019-03-10T07:40:51.716Z,7.10
2019-03-10T07:43:33.406Z,7.87
2019-03-10T07:46:28.613Z,8.03
2019-03-10T07:49:18.192Z,7.93
2019-03-10T07:51:57.405Z,8.80
2019-03-10T07:54:49.347Z,9.13
2019-03-10T07:57:43.123Z,8.03
2019-03-10T08:00:31.979Z,8.10
2019-03-10T08:03:24.117Z,8.20
2019-03-10T08:06:12.185Z,9.97
2019-03-10T08:09:10.226Z,10.07
2019-03-10T08:11:56.711Z,8.43
2019-03-10T08:14:37.076Z,7.40
2019-03-10T08:17:32.194Z,7.37
2019-03-10T08:20:30.677Z,6.57
2019-03-10T08:23:22.913Z,7.87
2019-03-10T08:26:10.644Z,7.67
2019-03-10T08:28:55.194Z,6.37
2019-03-10T08:31:43.138Z,8.23
2019-03-10T08:34:41.418Z,10.80
2019-03-10T08:37:22.801Z,6.43
2019-03-10T08:40:15.140Z,5.10
2019-03-10T08:42:51.812Z,7.10
2019-03-10T08:45:34.426Z,6.50
2019-03-10T08:48:21.533Z,6.93
2019-03-10T08:50:59.033Z,5.97
2019-03-10T08:53:37.856Z,7.00
2019-03-10T08:56:42.278Z,5.93
2019-03-10T08:59:30.216Z,5.27
2019-03-10T09:02:18.049Z,6.93
2019-03-10T09:05:04.450Z,7.10
2019-03-10T09:07:50.952Z,6.80
2019-03-10T09:10:46.159Z,7.87
2019-03-10T09:13:38.090Z,7.00
2019-03-10T09:16:26.232Z,6.83
2019-03-10T09:19:21.232Z,7.20
2019-03-10T09:22:02.921Z,7.53
2019-03-10T09:24:52.034Z,7.43
2019-03-10T09:27:54.202Z,7.10
2019-03-10T09:30:50.897Z,6.33
2019-03-10T09:33:30.422Z,7.10
2019-03-10T09:36:15.657Z,6.77
2019-03-10T09:39:11.634Z,7.90
2019-03-10T09:41:52.988Z,7.47
2019-03-10T09:44:40.852Z,5.87
2019-03-10T09:47:42.304Z,6.33
2019-03-10T09:50:30.242Z,5.97
2019-03-10T09:53:17.869Z,6.93
2019-03-10T09:56:04.168Z,6.90
2019-03-10T09:58:53.434Z,5.83
2019-03-10T10:01:42.602Z,4.20
2019-03-10T10:04:26.338Z,5.57
2019-03-10T10:07:05.059Z,6.20
2019-03-10T10:09:48.405Z,5.50
2019-03-10T10:12:35.505Z,5.93
2019-03-10T10:15:23.852Z,5.47
2019-03-10T10:18:18.853Z,4.70
2019-03-10T10:21:06.789Z,5.40
2019-03-10T10:24:02.097Z,5.43
2019-03-10T10:27:00.582Z,5.03
2019-03-10T10:29:49.850Z,6.30
2019-03-10T10:32:35.737Z,7.20
2019-03-10T10:35:24.904Z,6.23
2019-03-10T10:38:18.701Z,6.83
2019-03-10T10:41:04.871Z,6.57
2019-03-10T10:43:47.381Z,6.00
2019-03-10T10:46:37.146Z,5.93
2019-03-10T10:49:29.090Z,5.83
2019-03-10T10:52:20.713Z,7.00
2019-03-10T10:54:58.614Z,9.77
2019-03-10T10:57:38.974Z,9.10
2019-03-10T11:00:20.767Z,9.40
2019-03-10T11:03:22.325Z,8.47
2019-03-10T11:06:06.961Z,9.00
2019-03-10T11:08:48.457Z,7.47
2019-03-10T11:11:36.095Z,6.87
2019-03-10T11:14:34.372Z,7.50
2019-03-10T11:17:23.541Z,7.73
2019-03-10T11:20:11.577Z,6.63
2019-03-10T11:23:03.611Z,8.10
2019-03-10T11:25:52.878Z,8.40
2019-03-10T11:28:50.773Z,9.40
2019-03-10T11:31:34.060Z,8.43
2019-03-10T11:34:14.946Z,7.50
2019-03-10T11:36:57.364Z,7.00
2019-03-10T11:39:36.230Z,7.57
2019-03-10T11:42:22.781Z,7.43
2019-03-10T11:45:18.191Z,7.63
2019-03-10T11:49:08.194Z,7.17
2019-03-10T11:52:54.656Z,8.43
2019-03-10T11:55:48.174Z,7.50
2019-03-10T11:58:36.895Z,6.47
2019-03-10T12:01:13.490Z,7.00
2019-03-10T12:03:58.818Z,7.10
2019-03-10T12:06:53.339Z,6.90
2019-03-10T12:09:23.359Z,6.70
2019-03-10T12:11:53.270Z,7.77
2019-03-10T12:14:23.182Z,7.70
2019-03-10T12:16:53.146Z,8.20
2019-03-10T12:19:23.591Z,7.50
2019-03-10T12:21:55.830Z,7.80
2019-03-10T12:24:25.230Z,7.40
2019-03-10T12:26:55.187Z,7.85
2019-03-10T12:29:25.123Z,7.10
2019-03-10T12:31:55.009Z,8.10
2019-03-10T12:34:24.864Z,7.53
2019-03-10T12:36:54.790Z,8.03
2019-03-10T12:39:24.667Z,6.83
2019-03-10T12:41:58.663Z,6.53
2019-03-10T12:44:27.321Z,6.22
2019-03-10T12:46:57.161Z,6.22
2019-03-10T12:49:27.212Z,6.83
2019-03-10T12:51:57.481Z,6.20
2019-03-10T12:54:27.334Z,6.30
2019-03-10T12:56:57.215Z,5.72
2019-03-10T12:59:27.143Z,6.05
2019-03-10T13:01:57.025Z,5.78
2019-03-10T13:04:26.930Z,6.28
2019-03-10T13:06:56.858Z,5.65
2019-03-10T13:09:26.969Z,6.70
2019-03-10T13:11:57.179Z,5.47
2019-03-10T13:14:27.271Z,5.97
2019-03-10T13:16:57.144Z,5.55
2019-03-10T13:19:27.097Z,5.87
2019-03-10T13:21:57.016Z,5.17
2019-03-10T13:24:26.962Z,5.72
2019-03-10T13:26:57.340Z,5.42
2019-03-10T13:29:27.654Z,5.55
2019-03-10T13:31:57.613Z,5.53
2019-03-10T13:34:27.543Z,5.37
2019-03-10T13:36:57.523Z,5.67
2019-03-10T13:39:27.378Z,5.83
2019-03-10T13:41:57.251Z,5.95
2019-03-10T13:44:27.466Z,5.03
2019-03-10T13:46:57.672Z,4.50
2019-03-10T13:49:28.069Z,5.83
2019-03-10T13:51:58.285Z,5.85
2019-03-10T13:54:28.539Z,5.55
2019-03-10T13:56:58.876Z,5.33
2019-03-10T13:59:29.198Z,5.17
2019-03-10T14:01:59.417Z,5.10
2019-03-10T14:04:29.735Z,3.70
2019-03-10T14:07:00.172Z,4.30
2019-03-10T14:09:30.427Z,4.67
2019-03-10T14:12:00.728Z,4.05
2019-03-10T14:14:31.061Z,4.42
2019-03-10T14:17:01.319Z,3.90
2019-03-10T14:19:31.694Z,3.67
2019-03-10T14:22:02.317Z,4.20
2019-03-10T14:24:33.551Z,3.60
2019-03-10T14:27:04.061Z,4.17
2019-03-10T14:29:34.835Z,3.87
2019-03-10T14:32:06.374Z,5.05
2019-03-10T14:34:37.123Z,4.12
2019-03-10T14:37:07.710Z,3.35
2019-03-10T14:39:38.154Z,3.22
2019-03-10T14:42:08.727Z,4.45
2019-03-10T14:44:39.432Z,3.67
2019-03-10T14:47:09.664Z,3.60
2019-03-10T14:49:39.964Z,3.42
2019-03-10T14:52:10.374Z,3.00
2019-03-10T14:54:40.675Z,3.72
2019-03-10T14:57:10.843Z,3.30
2019-03-10T14:59:41.048Z,3.00
2019-03-10T15:02:11.208Z,2.87
2019-03-10T15:04:41.504Z,3.20
2019-03-10T15:07:11.794Z,3.60
2019-03-10T15:09:43.709Z,3.12
2019-03-10T15:12:15.409Z,3.47
2019-03-10T15:14:45.921Z,2.40
2019-03-10T15:17:20.667Z,3.65
2019-03-10T15:19:54.629Z,3.20
2019-03-10T15:22:26.498Z,3.05
2019-03-10T15:24:57.004Z,3.20
2019-03-10T15:27:28.522Z,3.45
2019-03-10T15:29:59.073Z,3.17
2019-03-10T15:32:30.690Z,3.05
2019-03-10T15:35:02.756Z,2.95
2019-03-10T15:37:34.800Z,3.33
2019-03-10T15:40:05.280Z,3.33
2019-03-10T15:42:37.786Z,3.07
2019-03-10T15:45:08.589Z,3.27
2019-03-10T15:47:39.836Z,3.67
2019-03-10T15:50:15.182Z,3.50
2019-03-10T15:52:46.350Z,3.57
2019-03-10T15:55:16.455Z,3.07
2019-03-10T15:57:50.637Z,3.40
2019-03-10T16:00:19.526Z,3.23
2019-03-10T16:02:50.175Z,3.00
2019-03-10T16:05:20.757Z,3.93
2019-03-10T16:07:51.470Z,3.67
2019-03-10T16:10:22.373Z,3.43
2019-03-10T16:12:53.254Z,3.17
2019-03-10T16:15:23.933Z,3.05
2019-03-10T16:17:54.702Z,3.40
2019-03-10T16:20:25.450Z,3.30
2019-03-10T16:22:57.238Z,3.80
2019-03-10T16:25:28.945Z,3.02
2019-03-10T16:28:00.398Z,2.77
2019-03-10T16:30:32.116Z,2.92
2019-03-10T16:33:03.318Z,3.30
2019-03-10T16:35:34.290Z,3.52
2019-03-10T16:38:05.039Z,3.52
2019-03-10T16:40:36.281Z,2.80
2019-03-10T16:43:08.170Z,2.70
2019-03-10T16:45:39.176Z,3.58
2019-03-10T16:48:10.630Z,3.73
2019-03-10T16:50:41.897Z,3.57
2019-03-10T16:53:13.585Z,3.22
2019-03-10T16:55:44.427Z,3.37
2019-03-10T16:58:15.218Z,3.33
2019-03-10T17:00:45.997Z,3.93
2019-03-10T17:03:16.627Z,3.70
2019-03-10T17:05:47.327Z,3.90
2019-03-10T17:08:19.576Z,3.77
2019-03-10T17:10:50.401Z,3.57
2019-03-10T17:13:21.853Z,3.93
2019-03-10T17:15:53.182Z,4.47
2019-03-10T17:18:24.711Z,4.40
2019-03-10T17:20:56.555Z,6.07
2019-03-10T17:23:28.514Z,6.40
2019-03-10T17:26:03.479Z,4.40
2019-03-10T17:28:35.045Z,4.93
2019-03-10T17:31:06.267Z,4.67
2019-03-10T17:33:37.766Z,4.93
2019-03-10T17:36:09.536Z,5.17
2019-03-10T17:38:41.624Z,4.23
2019-03-10T17:41:13.627Z,3.80
2019-03-10T17:43:45.305Z,3.77
2019-03-10T17:46:16.774Z,3.60
2019-03-10T17:48:49.992Z,4.93
2019-03-10T17:51:21.762Z,4.00
2019-03-10T17:53:57.378Z,4.00
2019-03-10T17:56:29.414Z,4.20
2019-03-10T17:59:01.174Z,4.37
2019-03-10T18:01:32.210Z,4.57
2019-03-10T18:04:02.107Z,5.60
2019-03-10T18:06:32.141Z,6.03
2019-03-10T18:09:02.095Z,5.20
2019-03-10T18:11:32.110Z,5.27
2019-03-10T18:14:02.643Z,5.53
2019-03-10T18:16:33.624Z,5.17
2019-03-10T18:19:03.986Z,5.93
2019-03-10T18:21:35.247Z,6.77
2019-03-10T18:24:05.959Z,10.03
2019-03-10T18:26:36.746Z,10.90
2019-03-10T18:29:07.204Z,10.50
2019-03-10T18:31:37.807Z,8.20
2019-03-10T18:34:09.151Z,8.50
2019-03-10T18:36:40.619Z,8.10
2019-03-10T18:39:11.502Z,8.27
2019-03-10T18:41:41.663Z,9.00
2019-03-10T18:44:13.153Z,8.07
2019-03-10T18:46:43.706Z,9.80
2019-03-10T18:49:13.965Z,9.30
2019-03-10T18:51:44.450Z,8.40
2019-03-10T18:54:15.567Z,9.43
2019-03-10T18:56:48.425Z,8.53
2019-03-10T18:59:19.210Z,8.53
2019-03-10T19:01:49.397Z,8.80
2019-03-10T19:04:19.359Z,7.80
2019-03-10T19:06:49.657Z,8.07
2019-03-10T19:09:20.348Z,43.00
2019-03-10T19:11:52.517Z,268.33
2019-03-10T19:14:24.735Z,149.97
2019-03-10T19:16:54.300Z,58.07
2019-03-10T19:19:24.497Z,18.43
2019-03-10T19:21:54.831Z,10.80
2019-03-10T19:24:25.170Z,9.60
2019-03-10T19:26:55.656Z,8.50
2019-03-10T19:29:26.526Z,8.33
2019-03-10T19:31:56.948Z,7.90
2019-03-10T19:34:27.416Z,6.50
2019-03-10T19:36:57.764Z,10.03
2019-03-10T19:39:28.038Z,10.80
2019-03-10T19:41:58.457Z,9.30
2019-03-10T19:44:28.520Z,8.97
2019-03-10T19:46:58.807Z,8.07
2019-03-10T19:49:29.325Z,8.60
2019-03-10T19:51:59.494Z,8.77
2019-03-10T19:54:29.859Z,7.37
2019-03-10T19:57:00.133Z,8.40
2019-03-10T19:59:31.335Z,7.93
2019-03-10T20:02:01.557Z,16.67
2019-03-10T20:04:31.776Z,12.63
2019-03-10T20:07:02.238Z,17.57
2019-03-10T20:09:32.544Z,10.73
2019-03-10T20:12:02.842Z,19.93
2019-03-10T20:14:33.114Z,19.40
2019-03-10T20:17:03.469Z,19.90
2019-03-10T20:19:33.836Z,14.40
2019-03-10T20:22:04.044Z,8.67
2019-03-10T20:24:34.266Z,8.70
2019-03-10T20:27:04.758Z,10.70
2019-03-10T20:29:35.241Z,16.93
2019-03-10T20:32:13.361Z,21.47
2019-03-10T20:34:37.469Z,12.47
2019-03-10T20:37:07.828Z,20.90
2019-03-10T20:39:38.088Z,10.17
2019-03-10T20:42:08.343Z,18.67
2019-03-10T20:44:38.476Z,6.27
2019-03-10T20:47:08.749Z,4.83
2019-03-10T20:49:39.035Z,7.83
2019-03-10T20:52:09.227Z,5.67
2019-03-10T20:54:39.395Z,5.80
2019-03-10T20:57:09.778Z,5.70
2019-03-10T20:59:39.902Z,5.57
2019-03-10T21:02:10.948Z,6.30
2019-03-10T21:04:41.098Z,6.13
2019-03-10T21:07:11.330Z,6.87
2019-03-10T21:09:41.666Z,5.50
2019-03-10T21:12:11.903Z,8.57
2019-03-10T21:14:42.085Z,7.87
2019-03-10T21:17:12.328Z,9.30
2019-03-10T21:19:42.608Z,7.50
2019-03-10T21:22:12.725Z,10.43
2019-03-10T21:24:42.974Z,10.97
2019-03-10T21:27:13.200Z,12.40
2019-03-10T21:29:43.479Z,11.20
2019-03-10T21:32:13.758Z,9.33
2019-03-10T21:34:44.139Z,8.13
2019-03-10T21:37:14.330Z,8.60
2019-03-10T21:39:44.482Z,9.23
2019-03-10T21:42:14.810Z,16.40
2019-03-10T21:44:45.070Z,13.63
2019-03-10T21:47:15.230Z,15.77
2019-03-10T21:49:45.567Z,18.07
2019-03-10T21:52:15.737Z,21.43
2019-03-10T21:54:46.019Z,22.10
2019-03-10T21:57:16.288Z,22.90
2019-03-10T21:59:46.439Z,22.10
2019-03-10T22:02:16.599Z,22.03
2019-03-10T22:04:47.200Z,19.90
2019-03-10T22:07:17.294Z,15.33
2019-03-10T22:09:47.490Z,15.30
2019-03-10T22:12:17.741Z,15.97
2019-03-10T22:14:47.921Z,15.10
2019-03-10T22:17:18.101Z,14.93
2019-03-10T22:19:48.402Z,13.00
2019-03-10T22:22:18.670Z,13.70
2019-03-10T22:24:48.873Z,11.97
2019-03-10T22:27:19.141Z,14.27
2019-03-10T22:29:49.334Z,10.97
2019-03-10T22:32:19.501Z,10.57
2019-03-10T22:34:50.047Z,12.13
2019-03-10T22:37:20.267Z,11.50
2019-03-10T22:39:50.371Z,10.20
2019-03-10T22:42:20.619Z,10.03
2019-03-10T22:44:51.036Z,9.47
2019-03-10T22:47:21.368Z,10.37
2019-03-10T22:49:51.684Z,10.13
2019-03-10T22:52:22.006Z,10.37
2019-03-10T22:54:52.223Z,10.53
2019-03-10T22:57:22.498Z,9.40
2019-03-10T22:59:52.726Z,9.33
2019-03-10T23:02:22.889Z,9.53
2019-03-10T23:04:53.092Z,9.73
2019-03-10T23:07:23.453Z,10.73
2019-03-10T23:09:53.708Z,11.27
2019-03-10T23:12:23.953Z,9.77
2019-03-10T23:14:54.097Z,9.73
2019-03-10T23:17:24.374Z,9.30
2019-03-10T23:19:54.630Z,11.00
2019-03-10T23:22:24.850Z,10.53
2019-03-10T23:24:55.094Z,12.47
2019-03-10T23:27:25.401Z,12.27
2019-03-10T23:29:55.756Z,12.87
2019-03-10T23:32:25.969Z,11.50
2019-03-10T23:34:56.177Z,9.43
2019-03-10T23:37:26.454Z,9.63
2019-03-10T23:39:56.617Z,11.23
2019-03-10T23:42:26.874Z,9.67
2019-03-10T23:44:57.122Z,10.67
2019-03-10T23:47:27.276Z,7.87
2019-03-10T23:49:57.462Z,8.30
2019-03-10T23:52:27.672Z,7.30
2019-03-10T23:54:57.993Z,7.03
2019-03-10T23:57:28.276Z,7.47
2019-03-10T23:59:58.490Z,7.27
